Weather at Lüsse Airport

Public forecast

Using degrees Celsius for public forecast. Weather courtesy of forecast.io.

Closest aviation weather report (METAR) to Lüsse Airport

Closest report is Holzdorf Air Base, 29.1 nm (54.0 km) SE. Retrieved 2020/09/28 01:20 UTC (10 minutes ago):

ETSH 280120Z 11003KT 9999 BKN140 08/07 Q1009 BLU

Closest aviation forecast (TAF) to Lüsse Airport

Forecast is more than 12 hours old.

Closest forecast is Holzdorf Air Base, 29.1 nm (54.0 km) SE. Retrieved 2019/06/12 13:31 UTC (1 year ago):

TAF ETSH 121324Z 1213/1313 15010KT 9999 NSW FEW070 BECMG 1214/1216 26008G18KT 9999 NSW BKN050 TEMPO 1214/1217 27015G35KT 2000 TSRA BKN010 BKN050CB PROB30 1217/1223 27020G45KT 1000 TSRAGR BKN005 BKN040CB